Time;durP1;ratioP1;P1;durP2;ratioP2;P2;SDS_P1;SDS_P2;PMS_P1;PMS_P2;Temp;Humidity;BMP_temperature;BMP_pressure;BME280_temperature;BME280_humidity;BME280_pressure;Samples;Min_cycle;Max_cycle;Signal;HPM_P1;HPM_P2
2022/03/06 00:01:14;;;;;;;23.95;16.25;;;;;;;;;;5040110;28;20025;-65
2022/03/06 00:03:39;;;;;;;27.13;15.77;;;;;;;;;;5041753;28;20075;-67
2022/03/06 00:06:06;;;;;;;26.77;15.18;;;;;;;;;;5040786;28;20471;-66
2022/03/06 00:08:31;;;;;;;26.08;15.50;;;;;;;;;;5041315;28;20032;-66
2022/03/06 00:10:57;;;;;;;23.52;15.02;;;;;;;;;;5037752;28;20024;-66
2022/03/06 00:13:22;;;;;;;24.15;15.38;;;;;;;;;;5039406;28;20368;-66
2022/03/06 00:15:48;;;;;;;26.20;16.13;;;;;;;;;;5042793;28;20214;-66
2022/03/06 00:18:13;;;;;;;24.70;15.32;;;;;;;;;;5041798;28;20108;-66
2022/03/06 00:20:40;;;;;;;23.63;15.32;;;;;;;;;;5042590;28;20055;-66
2022/03/06 00:23:05;;;;;;;30.20;16.13;;;;;;;;;;5043351;28;20112;-66
2022/03/06 00:25:30;;;;;;;24.23;16.25;;;;;;;;;;5037589;28;20109;-66
2022/03/06 00:27:56;;;;;;;25.63;15.90;;;;;;;;;;5041299;28;20422;-66
2022/03/06 00:30:21;;;;;;;30.20;16.30;;;;;;;;;;5040637;28;20071;-66
2022/03/06 00:32:46;;;;;;;25.80;16.05;;;;;;;;;;5024840;28;20108;-66
2022/03/06 00:35:12;;;;;;;27.40;15.80;;;;;;;;;;5061974;28;20049;-65
2022/03/06 00:37:37;;;;;;;23.88;15.38;;;;;;;;;;5065075;28;20016;-65
2022/03/06 00:40:04;;;;;;;24.27;15.52;;;;;;;;;;5063800;28;20021;-65
2022/03/06 00:42:29;;;;;;;25.88;15.98;;;;;;;;;;5060997;28;20591;-65
2022/03/06 00:44:54;;;;;;;26.38;16.45;;;;;;;;;;5064840;28;20487;-66
2022/03/06 00:47:19;;;;;;;25.52;16.17;;;;;;;;;;5065055;28;20489;-66
2022/03/06 00:49:45;;;;;;;26.80;16.58;;;;;;;;;;5065708;28;20086;-66
2022/03/06 00:52:11;;;;;;;25.08;16.27;;;;;;;;;;5066141;28;20853;-66
2022/03/06 00:54:36;;;;;;;24.25;15.90;;;;;;;;;;5048038;28;20112;-66
2022/03/06 00:57:02;;;;;;;26.70;16.67;;;;;;;;;;5060920;28;20093;-67
2022/03/06 00:59:33;;;;;;;24.48;16.38;;;;;;;;;;5065103;28;20031;-66
2022/03/06 01:01:58;;;;;;;24.95;16.75;;;;;;;;;;5066301;28;20111;-66
2022/03/06 01:04:23;;;;;;;25.75;15.55;;;;;;;;;;5063895;28;20101;-66
2022/03/06 01:06:48;;;;;;;26.08;17.48;;;;;;;;;;5065352;28;20523;-66
2022/03/06 01:09:14;;;;;;;30.17;17.27;;;;;;;;;;5061900;28;20543;-66
2022/03/06 01:11:39;;;;;;;27.55;17.80;;;;;;;;;;5043340;28;20531;-66
2022/03/06 01:14:05;;;;;;;27.85;18.17;;;;;;;;;;5066242;28;20408;-66
2022/03/06 01:16:30;;;;;;;30.05;17.35;;;;;;;;;;5063756;28;20273;-66
2022/03/06 01:18:55;;;;;;;27.83;17.98;;;;;;;;;;5066781;28;20111;-65
2022/03/06 01:21:21;;;;;;;30.08;18.98;;;;;;;;;;5063283;28;20095;-66
2022/03/06 01:23:47;;;;;;;28.45;19.02;;;;;;;;;;5066472;28;20119;-66
2022/03/06 01:26:13;;;;;;;28.65;18.73;;;;;;;;;;5043718;28;20032;-66
2022/03/06 01:28:38;;;;;;;30.10;19.90;;;;;;;;;;5062660;28;20046;-65
2022/03/06 01:31:03;;;;;;;31.63;20.55;;;;;;;;;;5064008;28;20036;-66
2022/03/06 01:33:29;;;;;;;31.25;20.60;;;;;;;;;;5067590;28;20017;-65
2022/03/06 01:35:54;;;;;;;27.73;19.38;;;;;;;;;;5067394;28;20033;-66
2022/03/06 01:38:19;;;;;;;29.83;20.15;;;;;;;;;;5064693;28;20559;-65
2022/03/06 01:40:45;;;;;;;32.15;21.00;;;;;;;;;;5061505;28;20542;-65
2022/03/06 01:43:10;;;;;;;32.53;21.95;;;;;;;;;;5063844;28;20460;-66
2022/03/06 01:45:36;;;;;;;31.83;21.25;;;;;;;;;;5043030;28;20304;-66
2022/03/06 01:48:03;;;;;;;33.25;21.15;;;;;;;;;;5043728;28;20033;-65
2022/03/06 01:50:35;;;;;;;32.03;22.50;;;;;;;;;;5042075;28;20031;-66
2022/03/06 01:53:01;;;;;;;30.17;21.92;;;;;;;;;;5045011;28;20096;-66
2022/03/06 01:55:27;;;;;;;29.58;21.27;;;;;;;;;;5039827;28;20035;-66
2022/03/06 01:57:54;;;;;;;33.33;21.85;;;;;;;;;;5025988;28;20033;-66
2022/03/06 02:00:21;;;;;;;35.47;21.75;;;;;;;;;;5043909;28;20029;-64
2022/03/06 02:02:46;;;;;;;31.42;21.77;;;;;;;;;;5043738;28;20427;-66
2022/03/06 02:05:11;;;;;;;33.38;21.98;;;;;;;;;;5045608;28;20029;-66
2022/03/06 02:07:37;;;;;;;36.92;21.27;;;;;;;;;;5044113;28;20656;-66
2022/03/06 02:10:03;;;;;;;35.58;24.00;;;;;;;;;;5043999;28;20135;-66
2022/03/06 02:12:29;;;;;;;32.15;22.33;;;;;;;;;;5040909;28;20047;-66
2022/03/06 02:14:57;;;;;;;30.65;21.23;;;;;;;;;;5044862;28;20025;-66
2022/03/06 02:17:23;;;;;;;33.00;23.45;;;;;;;;;;5042935;28;20021;-66
2022/03/06 02:20:03;;;;;;;32.30;22.52;;;;;;;;;;5044716;28;20032;-66
2022/03/06 02:22:30;;;;;;;31.83;21.27;;;;;;;;;;5043557;28;20024;-67
2022/03/06 02:24:56;;;;;;;29.77;22.52;;;;;;;;;;5042776;28;20017;-64
2022/03/06 02:27:22;;;;;;;30.13;23.10;;;;;;;;;;5038722;28;20090;-65
2022/03/06 02:29:47;;;;;;;29.55;21.65;;;;;;;;;;5044353;28;20029;-65
2022/03/06 02:32:13;;;;;;;30.00;21.92;;;;;;;;;;5044454;28;20039;-66
2022/03/06 02:34:39;;;;;;;34.00;24.55;;;;;;;;;;5044237;28;20047;-66
2022/03/06 02:37:05;;;;;;;28.10;21.95;;;;;;;;;;5043731;28;20558;-67
2022/03/06 02:39:30;;;;;;;31.80;22.30;;;;;;;;;;5041879;28;20028;-66
2022/03/06 02:41:56;;;;;;;31.33;22.73;;;;;;;;;;5041174;28;20087;-67
2022/03/06 02:44:21;;;;;;;30.05;22.58;;;;;;;;;;5043987;28;20083;-66
2022/03/06 02:46:48;;;;;;;31.15;21.67;;;;;;;;;;5043994;28;20068;-66
2022/03/06 02:49:16;;;;;;;28.48;21.08;;;;;;;;;;5045092;28;20061;-66
2022/03/06 02:51:43;;;;;;;31.27;23.73;;;;;;;;;;5041643;28;20041;-66
2022/03/06 02:54:10;;;;;;;30.02;22.30;;;;;;;;;;5025487;28;20264;-65
2022/03/06 02:56:36;;;;;;;27.83;22.60;;;;;;;;;;5038793;28;20127;-66
2022/03/06 02:59:02;;;;;;;30.35;23.73;;;;;;;;;;5044163;28;20061;-66
2022/03/06 03:01:27;;;;;;;27.42;22.02;;;;;;;;;;5043442;28;20029;-66
2022/03/06 03:03:52;;;;;;;27.25;21.85;;;;;;;;;;5065218;28;20028;-66
2022/03/06 03:06:17;;;;;;;28.70;22.23;;;;;;;;;;5063405;28;20387;-66
2022/03/06 03:08:43;;;;;;;33.47;23.20;;;;;;;;;;5063535;28;20506;-66
2022/03/06 03:11:08;;;;;;;27.17;22.38;;;;;;;;;;5059900;28;20429;-67
2022/03/06 03:13:33;;;;;;;29.65;21.98;;;;;;;;;;5060417;28;20106;-66
2022/03/06 03:15:59;;;;;;;26.55;21.98;;;;;;;;;;5063561;28;20664;-66
2022/03/06 03:18:25;;;;;;;27.10;22.13;;;;;;;;;;5062237;28;20078;-66
2022/03/06 03:20:50;;;;;;;26.90;21.92;;;;;;;;;;5044999;28;20047;-66
2022/03/06 03:23:16;;;;;;;27.08;21.75;;;;;;;;;;5064488;28;20436;-66
2022/03/06 03:25:41;;;;;;;26.15;21.52;;;;;;;;;;5059012;28;20028;-65
2022/03/06 03:28:06;;;;;;;27.33;21.77;;;;;;;;;;5062267;28;20040;-64
2022/03/06 03:30:31;;;;;;;27.23;21.75;;;;;;;;;;5060585;28;20036;-65
2022/03/06 03:32:57;;;;;;;24.50;20.00;;;;;;;;;;5063691;28;20021;-66
2022/03/06 03:35:23;;;;;;;23.23;20.35;;;;;;;;;;5063207;28;20543;-66
2022/03/06 03:37:48;;;;;;;24.08;20.55;;;;;;;;;;5045882;28;20021;-66
2022/03/06 03:40:13;;;;;;;26.50;21.85;;;;;;;;;;5050145;28;20037;-66
2022/03/06 03:42:39;;;;;;;27.52;21.55;;;;;;;;;;5038902;28;20025;-66
2022/03/06 03:45:05;;;;;;;26.67;21.55;;;;;;;;;;5041842;28;20442;-64
2022/03/06 03:47:30;;;;;;;26.50;22.27;;;;;;;;;;5024525;28;20025;-65
2022/03/06 03:49:55;;;;;;;28.75;21.48;;;;;;;;;;5043713;28;20487;-66
2022/03/06 03:52:21;;;;;;;26.50;22.20;;;;;;;;;;5041628;28;20098;-66
2022/03/06 03:54:46;;;;;;;25.30;20.25;;;;;;;;;;5040747;28;20162;-65
2022/03/06 03:57:13;;;;;;;27.30;21.42;;;;;;;;;;5039194;28;20144;-66
2022/03/06 03:59:38;;;;;;;26.90;20.58;;;;;;;;;;5041770;28;20029;-67
2022/03/06 04:02:03;;;;;;;26.05;21.05;;;;;;;;;;5043155;28;20041;-66
2022/03/06 04:04:29;;;;;;;26.23;21.35;;;;;;;;;;5039748;28;20055;-66
2022/03/06 04:06:54;;;;;;;27.77;21.15;;;;;;;;;;5043353;28;20426;-67
2022/03/06 04:09:20;;;;;;;26.30;20.65;;;;;;;;;;5042892;28;20509;-66
2022/03/06 04:11:45;;;;;;;25.52;20.65;;;;;;;;;;5042048;28;20412;-66
2022/03/06 04:14:10;;;;;;;28.52;22.20;;;;;;;;;;5047887;28;20422;-65
2022/03/06 04:16:35;;;;;;;25.15;20.27;;;;;;;;;;5044188;28;20458;-65
2022/03/06 04:19:01;;;;;;;24.33;20.58;;;;;;;;;;5046124;28;20032;-65
2022/03/06 04:21:26;;;;;;;25.63;19.83;;;;;;;;;;5046378;28;20060;-66
2022/03/06 04:23:52;;;;;;;25.13;20.80;;;;;;;;;;5045093;28;20021;-65
2022/03/06 04:26:18;;;;;;;25.38;20.65;;;;;;;;;;5026210;28;20403;-65
2022/03/06 04:28:45;;;;;;;29.10;22.25;;;;;;;;;;5027913;28;20455;-65
2022/03/06 04:31:10;;;;;;;24.77;19.50;;;;;;;;;;5028644;28;20124;-65
2022/03/06 04:33:35;;;;;;;26.95;21.23;;;;;;;;;;5044968;28;20025;-66
2022/03/06 04:36:00;;;;;;;26.50;22.00;;;;;;;;;;5046265;28;20025;-66
2022/03/06 04:38:26;;;;;;;26.13;20.20;;;;;;;;;;5047326;28;20017;-66
2022/03/06 04:40:52;;;;;;;24.90;20.40;;;;;;;;;;5041051;28;20059;-66
2022/03/06 04:43:17;;;;;;;28.77;21.00;;;;;;;;;;5045392;28;20033;-66
2022/03/06 04:45:42;;;;;;;26.70;20.92;;;;;;;;;;5044637;28;20032;-66
2022/03/06 04:48:07;;;;;;;26.65;20.17;;;;;;;;;;5046030;28;20053;-66
2022/03/06 04:50:33;;;;;;;27.30;20.10;;;;;;;;;;5045486;28;20025;-65
2022/03/06 04:52:58;;;;;;;27.23;20.23;;;;;;;;;;5032603;28;20479;-65
2022/03/06 04:55:24;;;;;;;27.67;20.92;;;;;;;;;;5043644;28;20436;-65
2022/03/06 04:57:49;;;;;;;25.48;20.02;;;;;;;;;;5041524;28;20140;-65
2022/03/06 05:00:15;;;;;;;25.60;18.95;;;;;;;;;;5048865;28;20116;-66
2022/03/06 05:02:40;;;;;;;25.75;19.20;;;;;;;;;;5043942;28;20207;-66
2022/03/06 05:05:06;;;;;;;26.42;20.08;;;;;;;;;;5049006;28;20203;-66
2022/03/06 05:07:32;;;;;;;24.73;19.63;;;;;;;;;;5045720;28;20503;-64
2022/03/06 05:09:57;;;;;;;24.50;19.35;;;;;;;;;;5026366;28;20029;-65
2022/03/06 05:12:22;;;;;;;24.48;18.92;;;;;;;;;;5058694;28;20537;-65
2022/03/06 05:14:47;;;;;;;22.67;18.50;;;;;;;;;;5064571;28;20461;-65
2022/03/06 05:17:13;;;;;;;25.40;18.60;;;;;;;;;;5065985;28;20044;-65
2022/03/06 05:19:38;;;;;;;21.45;17.85;;;;;;;;;;5062984;28;20039;-64
2022/03/06 05:22:03;;;;;;;20.50;16.85;;;;;;;;;;5047128;28;20029;-66
2022/03/06 05:24:29;;;;;;;21.95;16.98;;;;;;;;;;5063552;28;20024;-67
2022/03/06 05:26:54;;;;;;;21.63;17.08;;;;;;;;;;5059390;28;20025;-65
2022/03/06 05:29:19;;;;;;;21.50;17.50;;;;;;;;;;5063984;28;20513;-65
2022/03/06 05:31:45;;;;;;;19.73;16.73;;;;;;;;;;5064136;28;20025;-65
2022/03/06 05:34:10;;;;;;;19.65;16.70;;;;;;;;;;5065521;28;20051;-65
2022/03/06 05:36:35;;;;;;;22.92;16.63;;;;;;;;;;5062083;28;20027;-65
2022/03/06 05:39:00;;;;;;;20.30;16.65;;;;;;;;;;5045295;28;20483;-65
2022/03/06 05:41:26;;;;;;;22.75;16.92;;;;;;;;;;5059179;28;20127;-65
2022/03/06 05:43:51;;;;;;;20.02;16.65;;;;;;;;;;5062750;28;20715;-65
2022/03/06 05:46:16;;;;;;;20.65;17.13;;;;;;;;;;5063133;28;20487;-65
2022/03/06 05:48:41;;;;;;;22.52;17.52;;;;;;;;;;5064763;28;20090;-65
2022/03/06 05:51:07;;;;;;;21.65;17.75;;;;;;;;;;5063105;28;20048;-65
2022/03/06 05:53:33;;;;;;;25.55;17.90;;;;;;;;;;5064847;28;20028;-65
2022/03/06 05:55:58;;;;;;;21.65;17.67;;;;;;;;;;5041871;28;20028;-65
2022/03/06 05:58:24;;;;;;;22.65;17.80;;;;;;;;;;5062732;28;20030;-66
2022/03/06 06:00:49;;;;;;;21.48;17.45;;;;;;;;;;5060736;28;20028;-65
2022/03/06 06:03:15;;;;;;;24.95;19.20;;;;;;;;;;5065809;28;20136;-66
2022/03/06 06:05:41;;;;;;;24.25;17.83;;;;;;;;;;5062941;28;20033;-65
2022/03/06 06:08:06;;;;;;;25.27;17.48;;;;;;;;;;5065309;28;20028;-66
2022/03/06 06:10:31;;;;;;;22.70;17.77;;;;;;;;;;5059843;28;20480;-66
2022/03/06 06:12:56;;;;;;;24.73;18.50;;;;;;;;;;5059186;28;20453;-66
2022/03/06 06:15:22;;;;;;;22.05;18.50;;;;;;;;;;5064269;28;20032;-65
2022/03/06 06:17:47;;;;;;;22.55;17.73;;;;;;;;;;5063470;28;20031;-66
2022/03/06 06:20:12;;;;;;;23.02;17.95;;;;;;;;;;5063017;28;20023;-65
2022/03/06 06:22:38;;;;;;;22.10;17.67;;;;;;;;;;5061863;28;20359;-65
2022/03/06 06:25:04;;;;;;;23.83;18.92;;;;;;;;;;5044390;28;20016;-65
2022/03/06 06:27:29;;;;;;;24.27;18.50;;;;;;;;;;5059559;28;20391;-65
2022/03/06 06:29:55;;;;;;;23.23;17.95;;;;;;;;;;5061437;28;20063;-65
2022/03/06 06:32:20;;;;;;;23.98;18.65;;;;;;;;;;5062790;28;20033;-65
2022/03/06 06:34:46;;;;;;;22.90;18.65;;;;;;;;;;5062341;28;20028;-65
2022/03/06 06:37:12;;;;;;;25.30;18.13;;;;;;;;;;5064490;28;20112;-65
2022/03/06 06:39:41;;;;;;;24.13;18.92;;;;;;;;;;5061598;28;20021;-65
2022/03/06 06:42:06;;;;;;;26.63;18.75;;;;;;;;;;5057577;28;20048;-67
2022/03/06 06:44:31;;;;;;;24.23;18.60;;;;;;;;;;5064140;28;20029;-65
2022/03/06 06:46:57;;;;;;;26.20;18.45;;;;;;;;;;5053681;28;20036;-65
2022/03/06 06:49:22;;;;;;;24.52;18.10;;;;;;;;;;5043684;28;20016;-66
2022/03/06 06:51:47;;;;;;;23.80;17.88;;;;;;;;;;5041888;28;20496;-66
2022/03/06 06:54:13;;;;;;;24.98;18.33;;;;;;;;;;5041675;28;20114;-66
2022/03/06 06:56:57;;;;;;;21.10;16.90;;;;;;;;;;5036831;28;20028;-66
2022/03/06 06:59:22;;;;;;;21.55;17.48;;;;;;;;;;5043608;28;20017;-66
2022/03/06 07:01:47;;;;;;;23.63;18.05;;;;;;;;;;5041632;28;20035;-66
2022/03/06 07:04:13;;;;;;;22.35;16.45;;;;;;;;;;5045273;28;20073;-65
2022/03/06 07:06:39;;;;;;;22.45;16.13;;;;;;;;;;5042862;28;20071;-65
2022/03/06 07:09:04;;;;;;;21.23;16.58;;;;;;;;;;5038820;28;20039;-65
2022/03/06 07:11:29;;;;;;;17.63;15.40;;;;;;;;;;5036812;28;20024;-66
2022/03/06 07:13:55;;;;;;;23.00;15.93;;;;;;;;;;5041215;28;20325;-65
2022/03/06 07:16:20;;;;;;;22.00;16.17;;;;;;;;;;5041256;28;20029;-65
2022/03/06 07:18:46;;;;;;;19.73;15.68;;;;;;;;;;5026027;28;20025;-65
2022/03/06 07:21:11;;;;;;;17.85;14.85;;;;;;;;;;5041584;28;20472;-66
2022/03/06 07:23:36;;;;;;;18.73;14.75;;;;;;;;;;5044453;28;20098;-66
2022/03/06 07:26:02;;;;;;;19.20;13.73;;;;;;;;;;5037094;28;20812;-65
2022/03/06 07:28:28;;;;;;;16.95;13.60;;;;;;;;;;5040131;28;20419;-66
2022/03/06 07:30:54;;;;;;;17.15;13.27;;;;;;;;;;5039993;28;20060;-66
2022/03/06 07:33:19;;;;;;;17.67;13.57;;;;;;;;;;5043651;28;20460;-66
2022/03/06 07:35:45;;;;;;;18.40;13.50;;;;;;;;;;5040523;28;20263;-64
2022/03/06 07:38:10;;;;;;;17.20;12.90;;;;;;;;;;5025676;28;20166;-66
2022/03/06 07:40:35;;;;;;;16.50;12.70;;;;;;;;;;5038818;28;20055;-65
2022/03/06 07:43:01;;;;;;;14.55;12.20;;;;;;;;;;5043865;28;20704;-65
2022/03/06 07:45:26;;;;;;;13.00;11.13;;;;;;;;;;5048904;28;20033;-65
2022/03/06 07:47:51;;;;;;;15.43;11.57;;;;;;;;;;5049231;28;20057;-66
2022/03/06 07:50:17;;;;;;;12.18;10.88;;;;;;;;;;5050666;28;20492;-64
2022/03/06 07:52:44;;;;;;;13.35;10.25;;;;;;;;;;5066517;28;20024;-62
2022/03/06 07:55:10;;;;;;;16.50;10.93;;;;;;;;;;5065528;28;20032;-63
2022/03/06 07:57:36;;;;;;;11.90;10.55;;;;;;;;;;5069976;28;20086;-63
2022/03/06 08:00:03;;;;;;;14.70;10.20;;;;;;;;;;5068669;28;20085;-62
2022/03/06 08:02:29;;;;;;;12.18;9.43;;;;;;;;;;5069817;28;20475;-63
2022/03/06 08:04:54;;;;;;;10.30;8.43;;;;;;;;;;5068537;28;20052;-63
2022/03/06 08:07:19;;;;;;;9.38;8.32;;;;;;;;;;5069113;28;20028;-62
2022/03/06 08:09:48;;;;;;;10.73;8.60;;;;;;;;;;5069102;28;20055;-62
2022/03/06 08:12:13;;;;;;;11.63;7.90;;;;;;;;;;5064746;28;20103;-63
2022/03/06 08:14:38;;;;;;;9.77;8.18;;;;;;;;;;5069452;28;20120;-63
2022/03/06 08:17:04;;;;;;;11.77;8.38;;;;;;;;;;5065643;28;20135;-62
2022/03/06 08:19:29;;;;;;;11.52;8.00;;;;;;;;;;5070259;28;20020;-63
2022/03/06 08:21:54;;;;;;;9.38;7.78;;;;;;;;;;5066952;28;20074;-62
2022/03/06 08:24:19;;;;;;;8.65;7.72;;;;;;;;;;5069381;28;20062;-62
2022/03/06 08:26:45;;;;;;;11.35;8.32;;;;;;;;;;5048071;28;20032;-62
2022/03/06 08:29:11;;;;;;;10.50;7.90;;;;;;;;;;5069023;28;20082;-63
2022/03/06 08:31:36;;;;;;;10.63;7.78;;;;;;;;;;5068512;28;20024;-62
2022/03/06 08:34:02;;;;;;;11.93;7.43;;;;;;;;;;5066915;28;20017;-62
2022/03/06 08:36:27;;;;;;;9.15;7.20;;;;;;;;;;5068885;28;20047;-62
2022/03/06 08:38:53;;;;;;;10.25;7.43;;;;;;;;;;5067380;28;20021;-63
2022/03/06 08:41:19;;;;;;;11.20;7.65;;;;;;;;;;5046596;28;20114;-63
2022/03/06 08:43:45;;;;;;;8.88;7.63;;;;;;;;;;5050647;28;20036;-64
2022/03/06 08:46:10;;;;;;;10.35;7.47;;;;;;;;;;5065071;28;20449;-62
2022/03/06 08:48:37;;;;;;;8.80;7.25;;;;;;;;;;5068283;28;20032;-63
2022/03/06 08:51:03;;;;;;;8.77;6.70;;;;;;;;;;5065089;28;20025;-63
2022/03/06 08:53:28;;;;;;;8.65;6.65;;;;;;;;;;5067240;28;20031;-63
2022/03/06 08:55:54;;;;;;;10.23;6.82;;;;;;;;;;5059693;28;20025;-63
2022/03/06 08:58:19;;;;;;;7.95;5.88;;;;;;;;;;5061758;28;20028;-63
2022/03/06 09:00:44;;;;;;;8.10;6.13;;;;;;;;;;5063221;28;20040;-63
2022/03/06 09:03:09;;;;;;;6.90;5.90;;;;;;;;;;5064389;28;20536;-62
2022/03/06 09:05:40;;;;;;;7.50;6.22;;;;;;;;;;5063465;28;20506;-62
2022/03/06 09:08:05;;;;;;;7.07;5.80;;;;;;;;;;5063192;28;20064;-62
2022/03/06 09:10:31;;;;;;;8.10;6.30;;;;;;;;;;5062467;28;20075;-62
2022/03/06 09:13:00;;;;;;;7.72;5.45;;;;;;;;;;5023196;28;20108;-62
2022/03/06 09:15:26;;;;;;;8.18;6.05;;;;;;;;;;5043281;28;20467;-63
2022/03/06 09:17:51;;;;;;;7.88;6.15;;;;;;;;;;5045974;28;20025;-63
2022/03/06 09:20:17;;;;;;;7.00;6.03;;;;;;;;;;5026617;28;20021;-66
2022/03/06 09:22:42;;;;;;;8.45;5.78;;;;;;;;;;5044129;28;20497;-61
2022/03/06 09:25:07;;;;;;;8.48;6.45;;;;;;;;;;5052248;28;20543;-62
2022/03/06 09:27:34;;;;;;;6.80;5.65;;;;;;;;;;5043757;28;20021;-62
2022/03/06 09:29:59;;;;;;;7.45;5.88;;;;;;;;;;5042126;28;20492;-62
2022/03/06 09:32:25;;;;;;;7.65;5.70;;;;;;;;;;5047424;28;20029;-63
2022/03/06 09:34:50;;;;;;;9.82;5.78;;;;;;;;;;5065175;28;20033;-63
2022/03/06 09:37:16;;;;;;;9.18;6.10;;;;;;;;;;5061531;28;20047;-63
2022/03/06 09:39:41;;;;;;;8.73;6.07;;;;;;;;;;5059835;28;20040;-63
2022/03/06 09:42:06;;;;;;;6.72;5.75;;;;;;;;;;5060585;28;20067;-63
2022/03/06 09:44:32;;;;;;;6.82;5.65;;;;;;;;;;5065616;28;20121;-62
2022/03/06 09:46:58;;;;;;;8.68;6.03;;;;;;;;;;5063478;28;20059;-63
2022/03/06 09:49:24;;;;;;;7.25;6.50;;;;;;;;;;5062666;28;20109;-63
2022/03/06 09:51:49;;;;;;;10.25;6.22;;;;;;;;;;5046571;28;20033;-62
2022/03/06 09:54:16;;;;;;;7.97;6.20;;;;;;;;;;5061566;28;20472;-62
2022/03/06 09:56:41;;;;;;;7.10;5.97;;;;;;;;;;5062621;28;20024;-61
2022/03/06 09:59:07;;;;;;;7.38;5.88;;;;;;;;;;5064699;28;20490;-62
2022/03/06 10:01:32;;;;;;;6.57;5.88;;;;;;;;;;5063357;28;20119;-71
2022/03/06 10:03:57;;;;;;;11.60;6.78;;;;;;;;;;5048997;28;20036;-63
2022/03/06 10:06:23;;;;;;;7.35;6.65;;;;;;;;;;5068481;28;20116;-62
2022/03/06 10:09:01;;;;;;;10.00;6.63;;;;;;;;;;5068095;28;20399;-63
2022/03/06 10:11:27;;;;;;;6.32;5.65;;;;;;;;;;5060304;28;20446;-61
2022/03/06 10:13:52;;;;;;;9.35;6.28;;;;;;;;;;5064476;28;20024;-63
2022/03/06 10:16:18;;;;;;;7.60;6.45;;;;;;;;;;5063965;28;20260;-62
2022/03/06 10:18:43;;;;;;;7.53;5.65;;;;;;;;;;5065684;28;20020;-63
2022/03/06 10:21:09;;;;;;;10.07;6.10;;;;;;;;;;5062531;28;20551;-63
2022/03/06 10:23:35;;;;;;;11.40;6.57;;;;;;;;;;5064684;28;20086;-62
2022/03/06 10:26:08;;;;;;;7.50;6.18;;;;;;;;;;5040429;28;20028;-62
2022/03/06 10:28:42;;;;;;;8.15;5.78;;;;;;;;;;5062355;28;20073;-63
2022/03/06 10:31:07;;;;;;;7.38;6.50;;;;;;;;;;5060800;28;20107;-62
2022/03/06 10:33:32;;;;;;;7.35;6.03;;;;;;;;;;5064332;28;20096;-64
2022/03/06 10:36:01;;;;;;;8.80;6.63;;;;;;;;;;5062096;28;20036;-63
2022/03/06 10:38:27;;;;;;;8.27;6.35;;;;;;;;;;5061992;28;20017;-63
2022/03/06 10:40:53;;;;;;;9.68;5.93;;;;;;;;;;5059332;28;20369;-63
2022/03/06 10:43:23;;;;;;;8.73;6.45;;;;;;;;;;5041904;28;20368;-62
2022/03/06 10:45:49;;;;;;;8.77;6.50;;;;;;;;;;5063156;28;20025;-63
2022/03/06 10:48:14;;;;;;;8.23;6.88;;;;;;;;;;5061840;28;20234;-62
2022/03/06 10:50:40;;;;;;;9.43;6.93;;;;;;;;;;5065667;28;20239;-62
2022/03/06 10:53:18;;;;;;;9.05;6.80;;;;;;;;;;5064453;28;20209;-62
2022/03/06 10:55:44;;;;;;;8.00;6.75;;;;;;;;;;5059294;28;20040;-63
2022/03/06 10:58:10;;;;;;;7.03;6.18;;;;;;;;;;5060673;28;20017;-63
2022/03/06 11:00:35;;;;;;;9.27;6.95;;;;;;;;;;5062454;28;20077;-63
2022/03/06 11:03:03;;;;;;;8.90;6.40;;;;;;;;;;5062739;28;20020;-62
2022/03/06 11:05:28;;;;;;;8.25;6.25;;;;;;;;;;5063173;28;20103;-63
2022/03/06 11:07:54;;;;;;;8.52;6.30;;;;;;;;;;5062659;28;20561;-63
2022/03/06 11:10:19;;;;;;;9.98;6.88;;;;;;;;;;5060608;28;20399;-63
2022/03/06 11:12:44;;;;;;;7.88;6.70;;;;;;;;;;5059806;28;20020;-64
2022/03/06 11:15:10;;;;;;;7.68;6.80;;;;;;;;;;5061184;28;20097;-64
2022/03/06 11:17:35;;;;;;;7.75;6.95;;;;;;;;;;5060194;28;20021;-65
2022/03/06 11:20:01;;;;;;;6.93;6.18;;;;;;;;;;5063309;28;20149;-62
2022/03/06 11:22:34;;;;;;;7.55;6.25;;;;;;;;;;5061609;28;20103;-62
2022/03/06 11:25:02;;;;;;;6.90;5.80;;;;;;;;;;5060042;28;20032;-62
2022/03/06 11:27:34;;;;;;;7.10;6.38;;;;;;;;;;5057765;28;20028;-64
2022/03/06 11:30:07;;;;;;;8.10;5.93;;;;;;;;;;5063518;28;20012;-62
2022/03/06 11:32:35;;;;;;;7.53;6.15;;;;;;;;;;5063507;28;20028;-64
2022/03/06 11:35:19;;;;;;;8.05;6.55;;;;;;;;;;5062614;28;20059;-64
2022/03/06 11:37:47;;;;;;;9.00;6.47;;;;;;;;;;5063882;28;20013;-64
2022/03/06 11:40:31;;;;;;;7.05;6.35;;;;;;;;;;5059679;28;20267;-64
2022/03/06 11:42:57;;;;;;;8.55;6.82;;;;;;;;;;5061280;28;20136;-63
2022/03/06 11:45:41;;;;;;;7.30;6.60;;;;;;;;;;5062158;28;20630;-63
2022/03/06 11:48:06;;;;;;;10.23;7.10;;;;;;;;;;5062141;28;20031;-63
2022/03/06 11:50:32;;;;;;;9.43;7.78;;;;;;;;;;5039329;28;20471;-63
2022/03/06 11:52:57;;;;;;;8.27;6.80;;;;;;;;;;5025209;28;20116;-63
2022/03/06 11:55:30;;;;;;;7.65;6.20;;;;;;;;;;5040287;28;20388;-63
2022/03/06 11:57:56;;;;;;;7.93;6.30;;;;;;;;;;5039004;28;20019;-62
2022/03/06 12:00:25;;;;;;;8.38;7.38;;;;;;;;;;5042346;28;20025;-62
2022/03/06 12:02:52;;;;;;;8.48;6.85;;;;;;;;;;5043491;28;20479;-62
2022/03/06 12:05:19;;;;;;;8.00;6.68;;;;;;;;;;5041586;28;20036;-64
2022/03/06 12:07:48;;;;;;;7.90;6.78;;;;;;;;;;5043619;28;20020;-63
2022/03/06 12:10:14;;;;;;;8.30;6.95;;;;;;;;;;5038379;28;20444;-63
2022/03/06 12:12:40;;;;;;;9.10;7.07;;;;;;;;;;5039162;28;20490;-64
2022/03/06 12:15:16;;;;;;;7.75;6.95;;;;;;;;;;5042207;28;20043;-63
2022/03/06 12:17:42;;;;;;;8.35;6.50;;;;;;;;;;5041396;28;20402;-63
2022/03/06 12:20:07;;;;;;;9.40;7.18;;;;;;;;;;5040429;28;20052;-63
2022/03/06 12:22:33;;;;;;;9.82;6.93;;;;;;;;;;5040870;28;20021;-63
2022/03/06 12:25:10;;;;;;;10.52;8.15;;;;;;;;;;5049266;28;20033;-64
2022/03/06 12:27:40;;;;;;;10.48;9.15;;;;;;;;;;5057670;28;20031;-64
2022/03/06 12:30:07;;;;;;;9.38;8.30;;;;;;;;;;5062801;28;20305;-64
2022/03/06 12:32:33;;;;;;;10.45;8.32;;;;;;;;;;5046809;28;20025;-64
2022/03/06 12:34:59;;;;;;;10.00;8.48;;;;;;;;;;5065064;28;20130;-63
2022/03/06 12:37:28;;;;;;;9.15;7.95;;;;;;;;;;5063107;28;20107;-64
2022/03/06 12:39:54;;;;;;;11.90;9.55;;;;;;;;;;5063155;28;20077;-64
2022/03/06 12:42:24;;;;;;;9.32;8.23;;;;;;;;;;5049839;28;20505;-64
2022/03/06 12:44:52;;;;;;;9.80;8.38;;;;;;;;;;5064921;28;20483;-64
2022/03/06 12:47:17;;;;;;;9.13;7.85;;;;;;;;;;5063104;28;20043;-65
2022/03/06 12:49:45;;;;;;;9.35;7.47;;;;;;;;;;5065083;28;20028;-66
2022/03/06 12:52:10;;;;;;;7.63;6.80;;;;;;;;;;5062382;28;20032;-63
2022/03/06 12:54:36;;;;;;;10.65;7.32;;;;;;;;;;5061425;28;20043;-64
2022/03/06 12:57:01;;;;;;;8.65;6.47;;;;;;;;;;5061218;28;20502;-64
2022/03/06 12:59:26;;;;;;;10.98;7.55;;;;;;;;;;5064046;28;20351;-64
2022/03/06 13:01:52;;;;;;;9.32;7.93;;;;;;;;;;5066352;28;20498;-64
2022/03/06 13:04:19;;;;;;;7.90;7.10;;;;;;;;;;5044274;28;20507;-64
2022/03/06 13:06:45;;;;;;;7.55;5.60;;;;;;;;;;5064373;28;20021;-65
2022/03/06 13:09:40;;;;;;;6.53;5.10;;;;;;;;;;5044963;28;20032;-64
2022/03/06 13:12:05;;;;;;;5.78;5.07;;;;;;;;;;5034235;28;20064;-64
2022/03/06 13:14:34;;;;;;;6.28;4.72;;;;;;;;;;5045075;28;20347;-64
2022/03/06 13:17:07;;;;;;;6.82;4.40;;;;;;;;;;5043928;28;20091;-67
2022/03/06 13:19:41;;;;;;;5.00;4.50;;;;;;;;;;5041246;28;20025;-64
2022/03/06 13:22:07;;;;;;;7.55;4.53;;;;;;;;;;5044390;28;20025;-65
2022/03/06 13:24:39;;;;;;;5.93;4.55;;;;;;;;;;5040308;28;20360;-65
2022/03/06 13:27:05;;;;;;;5.97;4.45;;;;;;;;;;5040701;28;20080;-65
2022/03/06 13:29:30;;;;;;;6.35;4.03;;;;;;;;;;5041787;28;20515;-64
2022/03/06 13:31:55;;;;;;;4.90;3.97;;;;;;;;;;5042756;28;20159;-64
2022/03/06 13:34:21;;;;;;;4.28;3.80;;;;;;;;;;5041972;28;20050;-65
2022/03/06 13:36:46;;;;;;;5.15;3.58;;;;;;;;;;5043345;28;20021;-66
2022/03/06 13:39:16;;;;;;;5.55;3.42;;;;;;;;;;5050670;28;20423;-64
2022/03/06 13:41:52;;;;;;;3.88;3.38;;;;;;;;;;5041981;28;20036;-65
2022/03/06 13:44:18;;;;;;;4.05;3.08;;;;;;;;;;5063405;28;20471;-64
2022/03/06 13:46:43;;;;;;;4.70;2.97;;;;;;;;;;5044814;28;20378;-65
2022/03/06 13:49:16;;;;;;;4.97;3.38;;;;;;;;;;5064657;28;20041;-64
2022/03/06 13:51:42;;;;;;;4.20;3.25;;;;;;;;;;5060314;28;20505;-67
2022/03/06 13:54:08;;;;;;;5.60;3.55;;;;;;;;;;5063701;28;20028;-70
2022/03/06 13:56:34;;;;;;;4.45;3.40;;;;;;;;;;5059272;28;20732;-64
2022/03/06 13:59:00;;;;;;;4.32;3.25;;;;;;;;;;5062757;28;20379;-65
2022/03/06 14:01:26;;;;;;;4.75;3.45;;;;;;;;;;5060592;28;20021;-63
2022/03/06 14:03:59;;;;;;;7.38;3.20;;;;;;;;;;5044596;28;20142;-64
2022/03/06 14:06:35;;;;;;;5.20;3.45;;;;;;;;;;5039999;28;20024;-63
2022/03/06 14:09:00;;;;;;;4.88;3.47;;;;;;;;;;5041402;28;20024;-63
2022/03/06 14:11:26;;;;;;;4.40;3.65;;;;;;;;;;5038066;28;20383;-66
2022/03/06 14:13:55;;;;;;;6.22;3.60;;;;;;;;;;5043576;28;20483;-65
2022/03/06 14:16:21;;;;;;;8.45;4.35;;;;;;;;;;5040434;28;20108;-64
2022/03/06 14:18:50;;;;;;;5.43;3.47;;;;;;;;;;5042710;28;20051;-66
2022/03/06 14:21:26;;;;;;;5.18;3.90;;;;;;;;;;5044341;28;20063;-65
2022/03/06 14:23:53;;;;;;;5.40;3.90;;;;;;;;;;5055692;28;20048;-68